CheckWX is a tool to help pilots better visualize weather data.  It is not intended as a substitute for an official pre-flight weather briefing.

07:34:40 UTC

YPJT TAF
Perth Jandakot Airport
Perth, Australia
TAF YPJT 180409Z 1806/1912 16005KT CAVOK

Jun-18@
06:00 UTC

Jun-18 @ 06:00 UTC

Jun-19@
12:00 UTC

Jun-19 @ 12:00 UTC

TAF YPJT 180409Z 1806/1912 16005KT CAVOK
Wind
  • 160° at 5 KTS
Conditions
No significant weather
Cloud Levels
  • No significant clouds